KAPG/APG METAR and TAF weather

Enter ICAO airport designator
Station Type Date Time Source
KAPG METAR 2020/09/22 22:58 UTC NOAA

KAPG 222258Z AUTO 00000KT 7SM CLR 17/06 A2997 RMK AO2 SLP152 T01740058 $


Station Type Date Time Source
KAPG Decoded METAR 2020/09/22 22:58 UTC NOAA

Phillips Army Air Field / Aberdeen, MD, United States (KAPG) 39-28N 076-10W
Sep 22, 2020 - 06:58 PM EDT / 2020.09.22 2258 UTC
Wind: Calm:0
Visibility: 7 mile(s):0
Sky conditions: clear
Temperature: 63.3 F (17.4 C)
Dew Point: 42.4 F (5.8 C)
Relative Humidity: 46%
Pressure (altimeter): 29.97 in. Hg (1014 hPa)
ob: KAPG 222258Z AUTO 00000KT 7SM CLR 17/06 A2997 RMK AO2 SLP152 T01740058
cycle: 23

Station Type Date Time Source
KAPG TAF UTC NOAA

Error!

Example: see airport list